Time;durP1;ratioP1;P1;durP2;ratioP2;P2;SDS_P1;SDS_P2;PMS_P1;PMS_P2;Temp;Humidity;BMP_temperature;BMP_pressure;BME280_temperature;BME280_humidity;BME280_pressure;Samples;Min_cycle;Max_cycle;Signal;HPM_P1;HPM_P2
2023/07/03 00:00:17;;;;;;;6.03;1.67;;;22.20;1.00;;;;;;4878196;29;20494;-53
2023/07/03 00:02:49;;;;;;;4.47;1.63;;;22.20;1.00;;;;;;4861671;29;20037;-54
2023/07/03 00:05:17;;;;;;;4.57;1.67;;;22.20;1.00;;;;;;4878127;29;20044;-55
2023/07/03 00:07:46;;;;;;;5.68;1.92;;;22.10;1.00;;;;;;4878359;29;20385;-53
2023/07/03 00:10:14;;;;;;;3.42;1.30;;;22.10;1.00;;;;;;4878105;29;20400;-54
2023/07/03 00:12:41;;;;;;;4.22;1.52;;;22.10;1.00;;;;;;4878642;29;20041;-50
2023/07/03 00:15:09;;;;;;;3.83;1.30;;;22.10;1.00;;;;;;4878014;29;20045;-53
2023/07/03 00:17:39;;;;;;;5.07;1.45;;;22.10;1.00;;;;;;4878043;29;20079;-52
2023/07/03 00:20:11;;;;;;;3.55;1.00;;;22.10;1.00;;;;;;4878056;29;20040;-55
2023/07/03 00:22:38;;;;;;;7.22;1.70;;;22.10;1.00;;;;;;5114584;23;20062;-52
2023/07/03 00:25:05;;;;;;;5.05;1.80;;;22.10;1.00;;;;;;4915359;29;20441;-48
2023/07/03 00:27:32;;;;;;;5.15;1.15;;;22.10;1.00;;;;;;4915596;29;20048;-53
2023/07/03 00:29:59;;;;;;;3.50;1.13;;;22.10;1.00;;;;;;4915502;29;20068;-49
2023/07/03 00:32:28;;;;;;;5.93;1.55;;;22.10;1.00;;;;;;4915193;29;20040;-50
2023/07/03 00:34:56;;;;;;;6.47;1.63;;;22.10;1.00;;;;;;4898209;29;20461;-51
2023/07/03 00:37:24;;;;;;;3.42;1.48;;;22.10;1.00;;;;;;4915168;29;20070;-51
2023/07/03 00:39:52;;;;;;;7.25;1.80;;;22.10;1.00;;;;;;4898248;29;20404;-52
2023/07/03 00:42:21;;;;;;;4.53;1.15;;;22.10;1.00;;;;;;4915211;29;20067;-55
2023/07/03 00:44:48;;;;;;;8.10;2.38;;;22.10;1.00;;;;;;4915188;29;20465;-53
2023/07/03 00:47:15;;;;;;;3.72;1.48;;;22.10;1.00;;;;;;4915245;29;20047;-49
2023/07/03 00:49:42;;;;;;;7.82;1.42;;;22.10;1.00;;;;;;4915040;29;20397;-53
2023/07/03 00:52:12;;;;;;;7.72;1.05;;;22.10;1.00;;;;;;4915236;29;20092;-53
2023/07/03 00:54:39;;;;;;;4.10;1.02;;;22.10;1.00;;;;;;4889391;29;20140;-52
2023/07/03 00:57:11;;;;;;;7.20;1.80;;;22.10;1.00;;;;;;4898231;29;20048;-55
2023/07/03 00:59:38;;;;;;;6.05;1.88;;;22.10;1.00;;;;;;4897707;29;20066;-50
2023/07/03 01:02:30;;;;;;;2.78;1.08;;;22.10;1.00;;;;;;4898294;29;20044;-54
2023/07/03 01:05:02;;;;;;;4.17;1.30;;;22.10;1.00;;;;;;4915326;29;20444;-52
2023/07/03 01:07:32;;;;;;;2.37;1.03;;;22.10;1.00;;;;;;4900402;29;20052;-53
2023/07/03 01:10:06;;;;;;;5.07;1.65;;;22.00;1.00;;;;;;4918585;29;20032;-49
2023/07/03 01:12:38;;;;;;;7.82;1.70;;;22.10;1.00;;;;;;4918603;29;20464;-53
2023/07/03 01:15:10;;;;;;;5.63;2.60;;;22.10;1.00;;;;;;4918486;29;20119;-54
2023/07/03 01:17:40;;;;;;;5.28;1.15;;;22.00;1.00;;;;;;4901622;29;20394;-50
2023/07/03 01:20:13;;;;;;;3.08;0.90;;;22.00;1.00;;;;;;4901459;29;20048;-53
2023/07/03 01:22:53;;;;;;;8.03;1.50;;;22.00;1.00;;;;;;4901249;29;20079;-51
2023/07/03 01:25:24;;;;;;;3.05;1.23;;;22.00;1.00;;;;;;4901918;29;20703;-52
2023/07/03 01:27:52;;;;;;;4.72;1.45;;;22.00;1.00;;;;;;4901340;29;20092;-53
2023/07/03 01:30:20;;;;;;;7.93;1.70;;;22.00;1.00;;;;;;4918148;29;20048;-54
2023/07/03 01:32:50;;;;;;;5.32;1.30;;;22.00;1.00;;;;;;4900841;29;20040;-50
2023/07/03 01:35:18;;;;;;;4.18;1.23;;;22.00;1.00;;;;;;4889544;29;20052;-53
2023/07/03 01:37:47;;;;;;;6.75;1.08;;;22.00;1.00;;;;;;4901081;29;20099;-54
2023/07/03 01:40:17;;;;;;;3.17;0.90;;;22.00;1.00;;;;;;4901271;29;20070;-52
2023/07/03 01:42:45;;;;;;;4.18;1.40;;;22.00;1.00;;;;;;4901288;29;20052;-52
2023/07/03 01:45:13;;;;;;;3.92;1.80;;;22.00;1.00;;;;;;4900903;29;20036;-52
2023/07/03 01:47:40;;;;;;;2.67;1.10;;;22.00;1.00;;;;;;4900900;29;20059;-54
2023/07/03 01:50:15;;;;;;;3.13;1.15;;;22.00;1.00;;;;;;4901156;29;20268;-52
2023/07/03 01:52:54;;;;;;;3.42;1.00;;;22.00;1.00;;;;;;4917903;29;20460;-47
2023/07/03 01:55:39;;;;;;;2.83;0.82;;;22.00;1.00;;;;;;4910327;23;20586;-49
2023/07/03 01:58:28;;;;;;;3.97;1.20;;;22.00;1.00;;;;;;4875134;29;20041;-52
2023/07/03 02:01:02;;;;;;;2.60;0.65;;;22.00;1.00;;;;;;4863276;29;20045;-52
2023/07/03 02:03:52;;;;;;;2.72;1.00;;;22.00;1.00;;;;;;4863415;29;20136;-53
2023/07/03 02:06:29;;;;;;;4.10;0.98;;;22.00;1.00;;;;;;4863517;29;20053;-53
2023/07/03 02:08:57;;;;;;;3.83;1.38;;;21.90;1.00;;;;;;4879902;29;20048;-52
2023/07/03 02:11:26;;;;;;;4.28;1.20;;;21.90;1.00;;;;;;4863223;29;20068;-52
2023/07/03 02:13:55;;;;;;;7.13;1.85;;;21.90;1.00;;;;;;4863173;29;20049;-51
2023/07/03 02:16:25;;;;;;;5.88;1.25;;;21.90;1.00;;;;;;4863357;29;20045;-55
2023/07/03 02:18:52;;;;;;;5.53;1.33;;;21.90;1.00;;;;;;4879077;29;20049;-54
2023/07/03 02:21:19;;;;;;;5.38;1.45;;;21.90;1.00;;;;;;4879776;29;20049;-50
2023/07/03 02:23:47;;;;;;;7.93;1.48;;;21.90;1.00;;;;;;4862647;29;20033;-51
2023/07/03 02:26:15;;;;;;;6.10;1.83;;;21.90;1.00;;;;;;4880122;29;20123;-51
2023/07/03 02:28:42;;;;;;;11.98;2.30;;;21.90;1.00;;;;;;4855279;29;20054;-48
2023/07/03 02:31:11;;;;;;;6.70;2.33;;;21.90;1.00;;;;;;4879588;29;20045;-53
2023/07/03 02:33:38;;;;;;;6.43;1.77;;;21.90;1.00;;;;;;4879354;29;20049;-49
2023/07/03 02:36:05;;;;;;;3.60;1.00;;;21.90;1.00;;;;;;4863322;29;20045;-49
2023/07/03 02:38:32;;;;;;;3.83;1.02;;;21.90;1.00;;;;;;4879383;29;20072;-52
2023/07/03 02:40:59;;;;;;;3.50;1.00;;;21.90;1.00;;;;;;4847515;29;20052;-51
2023/07/03 02:43:26;;;;;;;3.33;1.35;;;21.90;1.00;;;;;;4879535;29;20485;-51
2023/07/03 02:45:54;;;;;;;5.20;1.90;;;21.90;1.00;;;;;;4862583;29;20041;-51
2023/07/03 02:48:21;;;;;;;1.17;0.70;;;21.90;1.00;;;;;;4879506;29;20409;-51
2023/07/03 02:50:52;;;;;;;5.18;1.20;;;21.90;1.00;;;;;;4862454;29;20045;-49
2023/07/03 02:53:20;;;;;;;5.18;1.08;;;21.90;1.00;;;;;;4862631;29;20067;-53
2023/07/03 02:55:53;;;;;;;5.72;0.95;;;21.90;1.00;;;;;;4860638;29;20068;-51
2023/07/03 02:58:21;;;;;;;3.85;1.15;;;21.90;1.00;;;;;;4858715;29;20080;-53
2023/07/03 03:00:48;;;;;;;3.78;1.63;;;21.80;1.00;;;;;;4878953;29;20408;-52
2023/07/03 03:03:15;;;;;;;4.25;1.13;;;21.80;1.00;;;;;;4862459;29;20041;-52
2023/07/03 03:05:42;;;;;;;4.88;1.23;;;21.80;1.00;;;;;;4862138;29;20052;-50
2023/07/03 03:08:11;;;;;;;6.50;1.70;;;21.80;1.00;;;;;;4862470;29;20413;-50
2023/07/03 03:10:38;;;;;;;8.45;1.25;;;21.80;1.00;;;;;;4878898;29;20049;-54
2023/07/03 03:13:05;;;;;;;3.13;1.27;;;21.90;1.00;;;;;;4862257;29;20121;-51
2023/07/03 03:15:35;;;;;;;3.95;0.88;;;21.80;1.00;;;;;;4862071;29;20049;-53
2023/07/03 03:18:02;;;;;;;4.95;1.23;;;21.80;1.00;;;;;;4878696;29;20517;-52
2023/07/03 03:20:30;;;;;;;3.42;1.25;;;21.80;1.00;;;;;;4878585;29;20462;-53
2023/07/03 03:22:57;;;;;;;7.18;1.50;;;21.80;1.00;;;;;;4862060;29;20045;-50
2023/07/03 03:25:24;;;;;;;4.55;1.33;;;21.80;1.00;;;;;;4877770;29;20052;-51
2023/07/03 03:27:51;;;;;;;5.85;1.52;;;21.80;1.00;;;;;;4860008;29;20148;-54
2023/07/03 03:30:18;;;;;;;5.50;1.50;;;21.80;1.00;;;;;;4877166;29;20501;-52
2023/07/03 03:32:46;;;;;;;5.32;0.93;;;21.80;1.00;;;;;;4878344;29;20490;-51
2023/07/03 03:35:14;;;;;;;6.22;1.08;;;21.70;1.00;;;;;;4861288;29;20052;-49
2023/07/03 03:37:41;;;;;;;5.05;1.08;;;21.80;1.00;;;;;;4861628;29;20053;-53
2023/07/03 03:40:09;;;;;;;3.63;1.35;;;21.80;1.00;;;;;;4878621;29;20242;-51
2023/07/03 03:42:37;;;;;;;3.35;0.93;;;21.80;1.00;;;;;;4860427;29;20112;-47
2023/07/03 03:45:04;;;;;;;3.78;0.90;;;21.80;1.00;;;;;;4861542;29;20064;-49
2023/07/03 03:47:32;;;;;;;3.83;1.55;;;21.70;1.00;;;;;;4861708;29;20077;-53
2023/07/03 03:50:01;;;;;;;3.78;1.58;;;21.70;1.00;;;;;;4861630;29;20037;-50
2023/07/03 03:52:30;;;;;;;5.10;1.13;;;21.70;1.00;;;;;;4861464;29;20065;-51
2023/07/03 03:54:58;;;;;;;4.18;1.05;;;21.70;1.00;;;;;;4861327;29;20086;-52
2023/07/03 03:57:25;;;;;;;3.78;0.88;;;21.70;1.00;;;;;;4873880;29;20433;-50
2023/07/03 03:59:52;;;;;;;4.55;1.35;;;21.70;1.00;;;;;;4861328;29;20573;-54
2023/07/03 04:02:19;;;;;;;4.78;1.30;;;21.70;1.00;;;;;;4878363;29;20057;-52
2023/07/03 04:04:46;;;;;;;6.03;1.23;;;21.70;1.00;;;;;;4878541;29;20205;-51
2023/07/03 04:07:13;;;;;;;4.07;0.80;;;21.70;1.00;;;;;;4878297;29;20037;-50
2023/07/03 04:09:40;;;;;;;5.22;1.58;;;21.70;1.00;;;;;;4871873;29;20065;-49
2023/07/03 04:12:07;;;;;;;4.13;1.05;;;21.70;1.00;;;;;;4854263;29;20447;-50
2023/07/03 04:14:34;;;;;;;6.07;1.08;;;21.70;1.00;;;;;;4862304;29;20128;-52
2023/07/03 04:17:01;;;;;;;3.15;1.13;;;21.70;1.00;;;;;;4870766;29;20128;-49
2023/07/03 04:19:28;;;;;;;4.75;1.45;;;21.70;1.00;;;;;;4875177;29;20109;-49
2023/07/03 04:21:55;;;;;;;7.07;1.83;;;21.70;1.00;;;;;;4876796;29;20044;-54
2023/07/03 04:24:22;;;;;;;9.25;1.23;;;21.70;1.00;;;;;;4866051;29;20069;-51
2023/07/03 04:26:54;;;;;;;10.25;2.60;;;21.70;1.00;;;;;;4878859;29;20413;-50
2023/07/03 04:29:21;;;;;;;8.60;1.48;;;21.70;1.00;;;;;;5165837;23;20056;-51
2023/07/03 04:31:48;;;;;;;9.63;1.92;;;21.60;1.00;;;;;;4880434;29;20493;-49
2023/07/03 04:34:15;;;;;;;5.65;1.20;;;21.70;1.00;;;;;;4881960;29;20100;-51
2023/07/03 04:36:43;;;;;;;8.82;1.95;;;21.70;1.00;;;;;;4898241;29;20408;-51
2023/07/03 04:39:09;;;;;;;9.35;1.85;;;21.60;1.00;;;;;;4885519;29;20557;-52
2023/07/03 04:41:36;;;;;;;4.60;1.52;;;21.60;1.00;;;;;;4896048;29;20036;-54
2023/07/03 04:44:03;;;;;;;7.97;1.70;;;21.60;1.00;;;;;;4902275;29;20068;-52
2023/07/03 04:46:30;;;;;;;6.60;1.50;;;21.60;1.00;;;;;;4901258;29;20055;-52
2023/07/03 04:49:04;;;;;;;6.60;1.52;;;21.60;1.00;;;;;;4900779;29;20047;-51
2023/07/03 04:51:32;;;;;;;5.53;2.20;;;21.60;1.00;;;;;;4890200;29;20041;-52
2023/07/03 04:54:00;;;;;;;7.28;1.75;;;21.60;1.00;;;;;;4891475;29;20270;-49
2023/07/03 04:56:28;;;;;;;3.17;1.95;;;21.60;1.00;;;;;;4898933;29;20048;-50
2023/07/03 04:58:55;;;;;;;3.28;1.38;;;21.60;1.00;;;;;;4899930;29;20045;-52
2023/07/03 05:01:24;;;;;;;9.68;2.13;;;21.60;1.00;;;;;;5327477;23;20053;-49
2023/07/03 05:03:51;;;;;;;6.03;1.42;;;21.60;1.00;;;;;;4899612;29;20457;-49
2023/07/03 05:06:18;;;;;;;5.57;1.30;;;21.60;1.00;;;;;;4900503;29;20441;-49
2023/07/03 05:08:46;;;;;;;7.22;1.20;;;21.60;1.00;;;;;;4900420;29;20037;-50
2023/07/03 05:11:13;;;;;;;4.75;1.17;;;21.60;1.00;;;;;;4900600;29;20041;-49
2023/07/03 05:13:40;;;;;;;4.60;1.35;;;21.60;1.00;;;;;;4900163;29;20580;-50
2023/07/03 05:16:07;;;;;;;6.50;1.38;;;21.60;1.00;;;;;;4900466;29;20044;-50
2023/07/03 05:18:34;;;;;;;12.23;2.17;;;21.60;1.00;;;;;;4900509;29;20048;-54
2023/07/03 05:21:01;;;;;;;7.65;1.10;;;21.60;1.00;;;;;;4883284;29;20036;-48
2023/07/03 05:23:28;;;;;;;4.25;1.10;;;21.60;1.00;;;;;;4900362;29;20045;-51
2023/07/03 05:25:55;;;;;;;8.10;1.55;;;21.60;1.00;;;;;;4899947;29;20045;-51
2023/07/03 05:28:23;;;;;;;5.78;1.05;;;21.60;1.00;;;;;;4900375;29;20467;-49
2023/07/03 05:30:56;;;;;;;4.35;1.38;;;21.60;1.00;;;;;;4899975;29;20386;-50
2023/07/03 05:33:23;;;;;;;4.10;1.45;;;21.60;1.00;;;;;;4977286;23;20171;-50
2023/07/03 05:35:50;;;;;;;6.85;2.15;;;21.60;1.00;;;;;;4899877;29;20421;-49
2023/07/03 05:38:20;;;;;;;5.40;1.33;;;21.60;1.00;;;;;;4900259;29;20428;-50
2023/07/03 05:40:49;;;;;;;5.60;1.45;;;21.60;1.00;;;;;;4899670;29;20497;-51
2023/07/03 05:43:18;;;;;;;5.95;1.35;;;21.60;1.00;;;;;;4902223;29;20123;-53
2023/07/03 05:45:46;;;;;;;7.63;2.53;;;21.60;1.00;;;;;;4903258;29;20045;-49
2023/07/03 05:48:14;;;;;;;4.63;1.00;;;21.60;1.00;;;;;;4903207;29;20040;-49
2023/07/03 05:50:41;;;;;;;6.15;1.77;;;21.60;1.00;;;;;;4902880;29;20433;-53
2023/07/03 05:53:09;;;;;;;5.65;1.38;;;21.60;1.00;;;;;;4901700;29;20055;-50
2023/07/03 05:55:36;;;;;;;4.15;1.40;;;21.60;1.00;;;;;;4902251;29;20041;-52
2023/07/03 05:58:03;;;;;;;5.20;1.40;;;21.60;1.00;;;;;;4903443;29;20098;-50
2023/07/03 06:00:33;;;;;;;4.80;1.05;;;21.60;1.00;;;;;;4904026;29;20044;-49
2023/07/03 06:03:02;;;;;;;5.20;1.02;;;21.60;1.00;;;;;;4903631;29;20124;-48
2023/07/03 06:05:29;;;;;;;5.57;0.98;;;21.60;1.00;;;;;;4920278;23;20056;-49
2023/07/03 06:07:56;;;;;;;5.05;1.63;;;21.60;1.00;;;;;;4902740;29;20053;-50
2023/07/03 06:10:23;;;;;;;4.45;1.02;;;21.60;1.00;;;;;;4902969;29;20052;-48
2023/07/03 06:12:50;;;;;;;6.78;1.00;;;21.60;1.00;;;;;;4902161;29;20457;-48
2023/07/03 06:15:17;;;;;;;4.93;1.08;;;21.60;1.00;;;;;;4903347;29;20040;-48
2023/07/03 06:17:44;;;;;;;3.88;0.98;;;21.60;1.00;;;;;;4903665;29;20461;-48
2023/07/03 06:20:11;;;;;;;4.88;0.93;;;21.60;1.00;;;;;;4903091;29;20515;-49
2023/07/03 06:22:40;;;;;;;6.38;0.68;;;21.60;1.00;;;;;;4903195;29;20504;-49
2023/07/03 06:25:07;;;;;;;3.90;1.17;;;21.60;1.00;;;;;;4903235;29;20096;-48
2023/07/03 06:27:34;;;;;;;4.28;1.42;;;21.60;1.00;;;;;;4903337;29;20045;-48
2023/07/03 06:30:02;;;;;;;3.97;0.95;;;21.60;1.00;;;;;;4902763;29;20043;-51
2023/07/03 06:32:29;;;;;;;5.88;1.00;;;21.60;1.00;;;;;;4903132;29;20052;-47
2023/07/03 06:34:56;;;;;;;4.32;0.90;;;21.60;1.00;;;;;;4898381;29;20059;-48
2023/07/03 06:37:23;;;;;;;1.75;0.77;;;21.60;1.00;;;;;;4903332;29;20045;-48
2023/07/03 06:39:50;;;;;;;1.80;0.73;;;21.60;1.00;;;;;;4903026;29;20059;-47
2023/07/03 06:42:17;;;;;;;4.07;1.17;;;21.60;1.00;;;;;;4903092;29;20390;-48
2023/07/03 06:44:54;;;;;;;3.60;0.95;;;21.60;1.00;;;;;;4886097;29;20041;-49
2023/07/03 06:47:20;;;;;;;5.90;1.48;;;21.60;1.00;;;;;;4902337;29;20488;-48
2023/07/03 06:49:47;;;;;;;4.15;1.17;;;21.60;1.00;;;;;;4902779;29;20044;-47
2023/07/03 06:52:14;;;;;;;2.78;0.95;;;21.60;1.00;;;;;;4902916;29;20037;-49
2023/07/03 06:54:41;;;;;;;2.53;0.90;;;21.60;1.00;;;;;;4902185;29;20045;-49
2023/07/03 06:57:08;;;;;;;4.10;0.77;;;21.60;1.00;;;;;;4902545;29;20044;-47
2023/07/03 06:59:35;;;;;;;2.95;0.55;;;21.60;1.00;;;;;;4901991;29;20131;-48
2023/07/03 07:02:01;;;;;;;4.05;1.38;;;21.60;1.00;;;;;;4897875;29;20040;-50
2023/07/03 07:07:28;;;;;;;2.90;0.75;;;21.60;1.00;;;;;;4909431;29;20104;-53
2023/07/03 07:09:55;;;;;;;3.28;1.17;;;21.60;1.00;;;;;;4916364;29;20115;-48
2023/07/03 07:12:22;;;;;;;3.40;0.95;;;21.60;1.00;;;;;;4898661;29;20412;-50
2023/07/03 07:14:49;;;;;;;3.13;0.77;;;21.60;1.00;;;;;;4897266;29;20049;-51
2023/07/03 07:17:16;;;;;;;4.75;1.05;;;21.60;1.00;;;;;;4897444;29;20047;-51
2023/07/03 07:19:43;;;;;;;5.25;0.70;;;21.60;1.00;;;;;;4897404;29;20095;-50
2023/07/03 07:22:09;;;;;;;3.55;1.15;;;21.60;1.00;;;;;;4897190;29;20040;-51
2023/07/03 07:24:36;;;;;;;4.90;1.23;;;21.60;1.00;;;;;;4897221;29;20505;-50
2023/07/03 07:27:04;;;;;;;3.30;1.30;;;21.60;1.00;;;;;;4897290;29;20041;-51
2023/07/03 07:29:31;;;;;;;4.55;1.02;;;21.60;1.00;;;;;;4897291;29;20477;-50
2023/07/03 07:31:58;;;;;;;2.67;0.73;;;21.60;1.00;;;;;;4897040;29;20055;-50
2023/07/03 07:34:25;;;;;;;5.95;1.27;;;21.60;1.00;;;;;;4897248;29;20048;-53
2023/07/03 07:36:52;;;;;;;5.40;0.98;;;21.60;1.00;;;;;;5271419;23;20087;-52
2023/07/03 07:39:20;;;;;;;3.00;0.88;;;21.60;1.00;;;;;;4896915;29;20048;-54
2023/07/03 07:41:47;;;;;;;2.85;1.05;;;21.60;1.00;;;;;;4896888;29;20052;-55
2023/07/03 07:44:28;;;;;;;4.72;1.83;;;21.60;1.00;;;;;;5129804;27;20374;-53
2023/07/03 07:46:55;;;;;;;1.83;0.65;;;21.60;1.00;;;;;;5130226;27;20454;-51
2023/07/03 07:49:22;;;;;;;5.57;0.90;;;21.60;1.00;;;;;;5130219;27;20039;-53
2023/07/03 07:51:49;;;;;;;5.95;2.08;;;21.60;1.00;;;;;;5115056;27;20035;-54
2023/07/03 07:54:15;;;;;;;6.80;2.40;;;21.60;1.00;;;;;;5109114;28;20093;-51
2023/07/03 07:56:42;;;;;;;6.22;0.90;;;21.60;1.00;;;;;;5109366;28;20046;-51
2023/07/03 07:59:09;;;;;;;4.65;0.90;;;21.60;1.00;;;;;;5109351;28;20051;-49
2023/07/03 08:01:36;;;;;;;11.43;1.52;;;21.60;1.00;;;;;;5108971;28;20499;-52
2023/07/03 08:04:04;;;;;;;3.17;0.77;;;21.60;1.00;;;;;;5108936;28;20100;-50
2023/07/03 08:06:31;;;;;;;5.15;0.80;;;21.60;1.00;;;;;;5109140;28;20040;-53
2023/07/03 08:08:58;;;;;;;4.82;0.98;;;21.60;1.00;;;;;;5224304;22;20068;-52
2023/07/03 08:11:28;;;;;;;2.78;1.58;;;21.70;1.00;;;;;;5039281;28;20463;-49
2023/07/03 08:13:55;;;;;;;6.72;0.90;;;21.70;1.00;;;;;;5047821;28;20045;-51
2023/07/03 08:16:21;;;;;;;4.50;1.02;;;21.70;1.00;;;;;;5048369;28;20420;-49
2023/07/03 08:18:49;;;;;;;5.35;1.15;;;21.70;1.00;;;;;;5048398;28;20052;-49
2023/07/03 08:21:16;;;;;;;3.03;0.70;;;21.70;1.00;;;;;;5048056;28;20049;-49
2023/07/03 08:23:43;;;;;;;2.58;1.42;;;21.70;1.00;;;;;;5048062;28;20545;-49
2023/07/03 08:26:18;;;;;;;4.63;1.27;;;21.70;1.00;;;;;;5048328;28;20037;-49
2023/07/03 08:28:45;;;;;;;3.30;1.05;;;21.70;1.00;;;;;;5048119;28;20405;-49
2023/07/03 08:31:12;;;;;;;5.40;1.42;;;21.70;1.00;;;;;;5048099;28;20037;-51
2023/07/03 08:33:39;;;;;;;5.03;1.20;;;21.70;1.00;;;;;;5048221;28;20095;-51
2023/07/03 08:36:07;;;;;;;3.92;0.60;;;21.70;1.00;;;;;;5046801;28;20041;-50
2023/07/03 08:38:36;;;;;;;2.13;1.02;;;21.70;1.00;;;;;;5048673;28;20045;-51
2023/07/03 08:41:04;;;;;;;4.72;0.75;;;21.70;1.00;;;;;;5047835;28;20064;-50
2023/07/03 08:43:40;;;;;;;5.05;1.00;;;21.70;1.00;;;;;;5047874;28;20041;-49
2023/07/03 08:46:16;;;;;;;3.13;0.80;;;21.70;1.00;;;;;;5046698;28;20052;-49
2023/07/03 08:48:45;;;;;;;4.65;0.80;;;21.80;1.00;;;;;;5048026;28;20045;-49
2023/07/03 08:51:18;;;;;;;1.35;0.73;;;21.80;1.00;;;;;;5047530;28;20061;-48
2023/07/03 08:53:48;;;;;;;;;;;21.80;1.00;;;;;;5046273;28;20049;-48
2023/07/03 08:56:20;;;;;;;1.63;0.57;;;21.80;1.00;;;;;;5034315;28;20019;-48
2023/07/03 08:58:51;;;;;;;5.85;0.68;;;21.80;1.00;;;;;;5034522;28;20049;-54
2023/07/03 09:01:21;;;;;;;1.85;0.50;;;21.80;1.00;;;;;;5034171;28;20133;-50
2023/07/03 09:04:07;;;;;;;4.30;1.50;;;21.80;1.00;;;;;;5033918;28;20044;-48
2023/07/03 09:07:01;;;;;;;4.43;0.90;;;21.80;1.00;;;;;;5034314;28;20033;-50
2023/07/03 09:09:51;;;;;;;5.22;0.88;;;21.80;1.00;;;;;;5204950;22;20020;31
2023/07/03 09:12:28;;;;;;;2.63;1.20;;;21.80;1.00;;;;;;5005485;28;20062;-48
2023/07/03 09:15:00;;;;;;;2.90;0.85;;;21.90;1.00;;;;;;5014526;28;20038;-51
2023/07/03 09:17:31;;;;;;;2.60;0.50;;;21.90;1.00;;;;;;5014631;28;20691;-48
2023/07/03 09:19:59;;;;;;;3.03;0.82;;;21.90;1.00;;;;;;5014381;28;20038;-47
2023/07/03 09:22:51;;;;;;;2.05;0.52;;;21.90;1.00;;;;;;5014008;28;20516;-53
2023/07/03 09:25:39;;;;;;;3.75;1.30;;;21.90;1.00;;;;;;5014135;28;20034;-49
2023/07/03 09:28:09;;;;;;;3.08;0.80;;;21.90;1.00;;;;;;5014196;28;20045;-49
2023/07/03 09:30:37;;;;;;;2.72;0.65;;;21.90;1.00;;;;;;5014089;28;20092;-48
2023/07/03 09:33:06;;;;;;;2.70;0.65;;;21.90;1.00;;;;;;5014190;28;20066;-49
2023/07/03 09:35:40;;;;;;;2.60;0.60;;;21.90;1.00;;;;;;5014135;28;20530;-50
2023/07/03 09:38:21;;;;;;;1.27;0.77;;;21.90;1.00;;;;;;5014311;28;20052;-50
2023/07/03 09:40:52;;;;;;;;;;;21.90;1.00;;;;;;5074709;23;20045;-50
2023/07/03 09:43:27;;;;;;;5.35;1.27;;;21.90;1.00;;;;;;5014075;28;20284;-48
2023/07/03 09:46:06;;;;;;;2.20;0.63;;;21.90;1.00;;;;;;5013775;28;20053;-52
2023/07/03 09:48:35;;;;;;;4.25;0.73;;;21.90;1.00;;;;;;5014108;28;20124;-49
2023/07/03 09:51:06;;;;;;;2.65;0.68;;;21.90;1.00;;;;;;5013920;28;20481;-48
2023/07/03 09:53:38;;;;;;;3.35;1.10;;;21.90;1.00;;;;;;5014038;28;20041;-48
2023/07/03 09:56:15;;;;;;;3.13;1.13;;;21.90;1.00;;;;;;5013781;28;20081;-49
2023/07/03 09:58:48;;;;;;;3.30;0.60;;;22.00;1.00;;;;;;5013978;28;20123;-50
2023/07/03 10:01:19;;;;;;;4.22;1.05;;;22.00;1.00;;;;;;5013623;28;20096;-49
2023/07/03 10:04:10;;;;;;;4.88;1.73;;;22.00;1.00;;;;;;5013661;28;20038;-47
2023/07/03 10:06:57;;;;;;;4.40;0.95;;;22.00;1.00;;;;;;4995597;28;20125;-50
2023/07/03 10:09:30;;;;;;;3.65;0.95;;;22.00;1.00;;;;;;5013818;28;20524;-47
2023/07/03 10:12:11;;;;;;;1.48;0.90;;;22.00;1.00;;;;;;5154305;22;20053;-50
2023/07/03 10:14:48;;;;;;;3.17;1.10;;;22.00;1.00;;;;;;5012738;28;20054;-51
2023/07/03 10:17:25;;;;;;;4.47;0.98;;;22.00;1.00;;;;;;5013467;28;20044;-47
2023/07/03 10:19:57;;;;;;;3.00;0.98;;;22.00;1.00;;;;;;5013558;28;20552;-47
2023/07/03 10:22:25;;;;;;;3.53;1.05;;;22.00;1.00;;;;;;5013230;28;20652;-48
2023/07/03 10:25:00;;;;;;;2.03;0.70;;;22.00;1.00;;;;;;5012550;28;20042;-50
2023/07/03 10:27:29;;;;;;;7.75;1.25;;;22.10;1.00;;;;;;5012991;28;20544;-51
2023/07/03 10:29:56;;;;;;;4.45;1.70;;;22.00;1.00;;;;;;5013001;28;20034;-53
2023/07/03 10:32:27;;;;;;;1.85;1.02;;;22.10;1.00;;;;;;5012815;28;20120;-52
2023/07/03 10:35:13;;;;;;;3.92;0.80;;;22.10;1.00;;;;;;5013152;28;20470;-54
2023/07/03 10:38:06;;;;;;;2.40;0.70;;;22.10;1.00;;;;;;5013132;28;20050;-50
2023/07/03 10:43:48;;;;;;;0.95;0.50;;;22.10;1.00;;;;;;4913668;29;20104;-52
2023/07/03 10:46:30;;;;;;;2.17;0.70;;;22.10;1.00;;;;;;4915180;29;20381;-49
2023/07/03 10:49:02;;;;;;;3.65;1.10;;;22.10;1.00;;;;;;4916346;29;20040;-52
2023/07/03 10:51:35;;;;;;;5.60;0.60;;;22.10;1.00;;;;;;4915924;29;20052;-52
2023/07/03 10:54:29;;;;;;;2.88;0.82;;;22.10;1.00;;;;;;4915887;29;20279;-52
2023/07/03 10:56:59;;;;;;;3.88;1.40;;;22.10;1.00;;;;;;4908567;29;20060;-51
2023/07/03 10:59:34;;;;;;;4.03;1.42;;;22.10;1.00;;;;;;4916144;29;20127;-51
2023/07/03 11:02:19;;;;;;;4.85;1.55;;;22.20;1.00;;;;;;4915803;29;20052;-49
2023/07/03 11:05:04;;;;;;;4.07;1.30;;;22.20;1.00;;;;;;4915866;29;20042;-52
2023/07/03 11:07:34;;;;;;;3.63;0.90;;;22.20;1.00;;;;;;4897069;29;20036;-53
2023/07/03 11:10:31;;;;;;;3.38;0.75;;;22.20;1.00;;;;;;4896957;29;20127;-51
2023/07/03 11:13:14;;;;;;;5.68;1.10;;;22.20;1.00;;;;;;4897489;29;20390;-51
2023/07/03 11:16:09;;;;;;;3.15;1.13;;;22.20;1.00;;;;;;4896679;29;20460;-51
2023/07/03 11:18:55;;;;;;;5.78;1.38;;;22.20;1.00;;;;;;4909969;29;20048;-49
2023/07/03 11:21:50;;;;;;;3.85;1.00;;;22.20;1.00;;;;;;4897133;29;20047;-48
2023/07/03 11:24:33;;;;;;;3.13;0.68;;;22.20;1.00;;;;;;4896447;29;20076;-53
2023/07/03 11:27:02;;;;;;;1.85;0.50;;;22.20;1.00;;;;;;4896756;29;20044;-54
2023/07/03 11:29:34;;;;;;;5.25;0.70;;;22.20;1.00;;;;;;4896848;29;20036;-49
2023/07/03 11:32:04;;;;;;;3.50;0.88;;;22.20;1.00;;;;;;4896522;29;20104;-49
2023/07/03 11:34:32;;;;;;;3.80;1.17;;;22.20;1.00;;;;;;4896526;29;20056;-53
2023/07/03 11:37:40;;;;;;;2.75;0.75;;;22.30;1.00;;;;;;4896663;29;20048;-48
2023/07/03 11:40:27;;;;;;;5.93;0.98;;;22.30;1.00;;;;;;4896579;29;20036;-50
2023/07/03 11:45:39;;;;;;;3.20;1.02;;;22.30;1.00;;;;;;4930920;29;20487;-48
2023/07/03 11:48:38;;;;;;;5.82;1.13;;;22.30;1.00;;;;;;4934272;29;20044;-50
2023/07/03 11:51:06;;;;;;;2.58;0.60;;;22.30;1.00;;;;;;4902323;29;20066;-50
2023/07/03 11:53:43;;;;;;;2.55;0.82;;;22.30;1.00;;;;;;4934249;29;20110;-49
2023/07/03 11:56:30;;;;;;;1.90;0.70;;;22.30;1.00;;;;;;4934290;29;20119;-54
2023/07/03 11:59:06;;;;;;;7.10;1.65;;;22.30;1.00;;;;;;4934314;29;20114;-49
2023/07/03 12:01:33;;;;;;;3.63;1.05;;;22.30;1.00;;;;;;4934111;29;20146;-51
2023/07/03 12:04:04;;;;;;;4.30;0.70;;;22.30;1.00;;;;;;4933941;29;20114;-51
2023/07/03 12:06:40;;;;;;;3.08;0.93;;;22.30;1.00;;;;;;4934297;29;20039;-48
2023/07/03 12:09:19;;;;;;;6.72;1.48;;;22.30;1.00;;;;;;4933938;29;20095;-52
2023/07/03 12:12:03;;;;;;;4.28;0.88;;;22.30;1.00;;;;;;4933974;29;20544;-50
2023/07/03 12:17:36;;;;;;;4.43;0.50;;;22.30;1.00;;;;;;4888573;29;20052;-52
2023/07/03 12:20:05;;;;;;;2.55;0.85;;;22.30;1.00;;;;;;4896511;29;20040;-50
2023/07/03 12:22:51;;;;;;;1.98;0.60;;;22.30;1.00;;;;;;4877841;29;20505;-49
2023/07/03 12:25:27;;;;;;;2.25;0.43;;;22.40;1.00;;;;;;4877516;29;20163;-49
2023/07/03 12:28:07;;;;;;;2.72;1.35;;;22.40;1.00;;;;;;4876768;29;20036;-50
2023/07/03 12:30:34;;;;;;;5.63;1.23;;;22.40;1.00;;;;;;4880461;29;20137;-51
2023/07/03 12:33:02;;;;;;;2.65;0.85;;;22.40;1.00;;;;;;4881273;29;20113;-47
2023/07/03 12:35:35;;;;;;;3.35;0.70;;;22.40;1.00;;;;;;4881139;29;20069;-49
2023/07/03 12:38:06;;;;;;;;;;;22.40;1.00;;;;;;4881700;29;20478;-51
2023/07/03 12:40:41;;;;;;;2.92;0.73;;;22.40;1.00;;;;;;4881271;29;20295;-48
2023/07/03 12:43:10;;;;;;;3.15;0.82;;;22.40;1.00;;;;;;4881201;29;20072;-52
2023/07/03 12:48:30;;;;;;;3.63;1.27;;;22.40;1.00;;;;;;4916998;29;20107;-50
2023/07/03 12:50:57;;;;;;;3.78;0.50;;;22.40;1.00;;;;;;4917040;29;20496;-50
2023/07/03 12:53:29;;;;;;;2.30;0.63;;;22.40;1.00;;;;;;4918072;29;20043;-53
2023/07/03 12:56:02;;;;;;;2.40;0.53;;;22.40;1.00;;;;;;4918086;29;20032;-53
2023/07/03 12:58:29;;;;;;;5.03;0.77;;;22.40;1.00;;;;;;4918440;29;20037;-53
2023/07/03 13:01:07;;;;;;;4.03;0.68;;;22.40;1.00;;;;;;4901074;29;20187;-53
2023/07/03 13:03:42;;;;;;;2.80;0.88;;;22.50;1.00;;;;;;4911421;29;20043;-50
2023/07/03 13:06:28;;;;;;;4.47;0.95;;;22.50;1.00;;;;;;4918283;29;20077;-54
2023/07/03 13:08:57;;;;;;;1.90;1.00;;;22.50;1.00;;;;;;4918013;29;20036;-54
2023/07/03 13:11:35;;;;;;;5.65;1.30;;;22.50;1.00;;;;;;4918000;29;20127;-55
2023/07/03 13:14:19;;;;;;;4.28;0.73;;;22.50;1.00;;;;;;4917588;29;20044;-54
2023/07/03 13:16:51;;;;;;;1.75;0.70;;;22.50;1.00;;;;;;4916719;29;20157;-55
2023/07/03 13:19:34;;;;;;;3.58;0.90;;;22.50;1.00;;;;;;4917918;29;20044;-54
2023/07/03 13:22:06;;;;;;;2.35;0.75;;;22.50;1.00;;;;;;4918454;29;20551;-55
2023/07/03 13:24:41;;;;;;;2.97;0.95;;;22.50;1.00;;;;;;4917721;29;20047;-55
2023/07/03 13:27:17;;;;;;;2.88;1.20;;;22.50;1.00;;;;;;4917773;29;20401;-55
2023/07/03 13:29:44;;;;;;;1.90;0.47;;;22.50;1.00;;;;;;4917831;29;20095;-51
2023/07/03 13:32:15;;;;;;;6.13;1.55;;;22.50;1.00;;;;;;4917342;29;20036;-55